createdAt,value
2022-10-24T00:01:33.246Z,14.90
2022-10-24T00:04:00.892Z,14.90
2022-10-24T00:06:30.913Z,14.90
2022-10-24T00:08:58.550Z,14.80
2022-10-24T00:11:28.114Z,14.80
2022-10-24T00:13:57.336Z,14.80
2022-10-24T00:16:26.123Z,14.70
2022-10-24T00:18:53.804Z,14.60
2022-10-24T00:21:22.681Z,14.50
2022-10-24T00:23:53.224Z,14.40
2022-10-24T00:26:23.040Z,14.40
2022-10-24T00:28:50.687Z,14.30
2022-10-24T00:31:19.719Z,14.20
2022-10-24T00:33:47.553Z,14.30
2022-10-24T00:36:18.855Z,14.30
2022-10-24T00:38:47.323Z,14.30
2022-10-24T00:41:34.918Z,14.30
2022-10-24T00:44:22.454Z,14.30
2022-10-24T00:46:57.926Z,14.30
2022-10-24T00:49:30.632Z,14.40
2022-10-24T00:52:04.545Z,14.30
2022-10-24T00:54:32.406Z,14.40
2022-10-24T00:57:17.308Z,14.40
2022-10-24T00:59:47.721Z,14.40
2022-10-24T01:02:15.804Z,14.40
2022-10-24T01:04:44.674Z,14.40
2022-10-24T01:07:29.831Z,14.50
2022-10-24T01:10:15.912Z,14.40
2022-10-24T01:12:48.720Z,14.50
2022-10-24T01:15:28.274Z,14.50
2022-10-24T01:18:31.186Z,14.40
2022-10-24T01:21:07.668Z,14.50
2022-10-24T01:24:03.332Z,14.40
2022-10-24T01:26:49.345Z,14.40
2022-10-24T01:29:36.028Z,14.40
2022-10-24T01:32:26.912Z,14.30
2022-10-24T01:35:04.009Z,14.40
2022-10-24T01:37:51.671Z,14.30
2022-10-24T01:40:29.398Z,14.30
2022-10-24T01:43:01.185Z,14.30
2022-10-24T01:45:35.794Z,14.30
2022-10-24T01:48:06.973Z,14.20
2022-10-24T01:50:36.521Z,14.20
2022-10-24T01:53:04.959Z,14.20
2022-10-24T01:55:33.390Z,14.10
2022-10-24T01:58:00.960Z,14.10
2022-10-24T02:00:28.688Z,14.20
2022-10-24T02:03:01.749Z,14.20
2022-10-24T02:05:37.419Z,14.30
2022-10-24T02:08:08.643Z,14.30
2022-10-24T02:10:42.627Z,14.40
2022-10-24T02:13:21.968Z,14.40
2022-10-24T02:15:53.668Z,14.30
2022-10-24T02:18:21.654Z,14.30
2022-10-24T02:21:19.913Z,14.40
2022-10-24T02:24:19.907Z,14.30
2022-10-24T02:27:12.055Z,14.30
2022-10-24T02:30:01.228Z,14.30
2022-10-24T02:32:36.333Z,14.30
2022-10-24T02:35:06.370Z,14.30
2022-10-24T02:37:37.501Z,14.20
2022-10-24T02:40:08.336Z,14.20
2022-10-24T02:42:37.723Z,14.20
2022-10-24T02:45:07.980Z,14.20
2022-10-24T02:47:36.812Z,14.10
2022-10-24T02:50:04.770Z,14.10
2022-10-24T02:52:33.376Z,14.10
2022-10-24T02:55:00.975Z,14.10
2022-10-24T02:57:28.693Z,14.10
2022-10-24T02:59:59.270Z,14.10
2022-10-24T03:02:26.915Z,14.00
2022-10-24T03:04:54.517Z,14.10
2022-10-24T03:07:22.327Z,14.00
2022-10-24T03:09:49.871Z,14.10
2022-10-24T03:12:17.513Z,14.10
2022-10-24T03:14:45.359Z,14.00
2022-10-24T03:17:13.567Z,14.10
2022-10-24T03:19:41.214Z,14.10
2022-10-24T03:22:08.772Z,14.10
2022-10-24T03:24:44.526Z,14.10
2022-10-24T03:27:23.244Z,14.20
2022-10-24T03:29:51.070Z,14.20
2022-10-24T03:32:18.663Z,14.10
2022-10-24T03:34:46.330Z,14.10
2022-10-24T03:37:14.080Z,14.20
2022-10-24T03:39:41.919Z,14.10
2022-10-24T03:42:09.633Z,14.10
2022-10-24T03:44:38.380Z,14.00
2022-10-24T03:47:06.302Z,14.00
2022-10-24T03:49:33.933Z,14.00
2022-10-24T03:52:01.547Z,13.90
2022-10-24T03:54:29.109Z,13.80
2022-10-24T03:56:56.919Z,13.80
2022-10-24T03:59:27.316Z,13.70
2022-10-24T04:01:54.910Z,13.70
2022-10-24T04:04:22.487Z,13.70
2022-10-24T04:06:51.512Z,13.70
2022-10-24T04:09:19.201Z,13.60
2022-10-24T04:11:47.770Z,13.60
2022-10-24T04:14:15.406Z,13.60
2022-10-24T04:16:43.060Z,13.60
2022-10-24T04:19:11.014Z,13.50
2022-10-24T04:21:38.710Z,13.50
2022-10-24T04:24:06.637Z,13.50
2022-10-24T04:26:34.808Z,13.50
2022-10-24T04:29:02.387Z,13.50
2022-10-24T04:31:29.930Z,13.50
2022-10-24T04:33:57.499Z,13.60
2022-10-24T04:36:25.124Z,13.60
2022-10-24T04:38:52.797Z,13.60
2022-10-24T04:41:20.411Z,13.70
2022-10-24T04:43:47.970Z,13.60
2022-10-24T04:46:15.583Z,13.70
2022-10-24T04:48:45.212Z,13.70
2022-10-24T04:51:14.639Z,13.70
2022-10-24T04:53:43.834Z,13.70
2022-10-24T04:56:11.372Z,13.70
2022-10-24T04:58:39.057Z,13.70
2022-10-24T05:01:06.768Z,13.80
2022-10-24T05:03:34.526Z,13.70
2022-10-24T05:06:02.128Z,13.70
2022-10-24T05:08:29.707Z,13.70
2022-10-24T05:10:57.281Z,13.70
2022-10-24T05:13:25.289Z,13.60
2022-10-24T05:15:55.729Z,13.70
2022-10-24T05:18:23.332Z,13.60
2022-10-24T05:20:50.841Z,13.60
2022-10-24T05:23:18.532Z,13.60
2022-10-24T05:25:46.112Z,13.50
2022-10-24T05:28:14.139Z,13.50
2022-10-24T05:30:43.946Z,13.40
2022-10-24T05:33:12.451Z,13.40
2022-10-24T05:35:41.615Z,13.30
2022-10-24T05:38:09.388Z,13.20
2022-10-24T05:40:36.985Z,13.20
2022-10-24T05:43:07.382Z,13.20
2022-10-24T05:45:35.261Z,13.10
2022-10-24T05:48:02.861Z,13.20
2022-10-24T05:50:31.078Z,13.20
2022-10-24T05:52:58.640Z,13.10
2022-10-24T05:55:26.265Z,13.10
2022-10-24T05:57:53.876Z,13.10
2022-10-24T06:00:21.427Z,13.10
2022-10-24T06:02:49.069Z,13.00
2022-10-24T06:05:16.749Z,13.00
2022-10-24T06:07:45.231Z,13.00
2022-10-24T06:10:14.009Z,12.90
2022-10-24T06:12:41.784Z,12.90
2022-10-24T06:15:09.995Z,12.90
2022-10-24T06:17:40.378Z,12.90
2022-10-24T06:20:08.680Z,12.90
2022-10-24T06:22:36.260Z,12.90
2022-10-24T06:25:04.543Z,12.90
2022-10-24T06:27:32.082Z,12.90
2022-10-24T06:29:59.614Z,12.90
2022-10-24T06:32:27.190Z,13.00
2022-10-24T06:34:57.325Z,12.90
2022-10-24T06:37:24.978Z,12.90
2022-10-24T06:39:55.558Z,13.00
2022-10-24T06:42:23.258Z,13.10
2022-10-24T06:44:51.319Z,13.10
2022-10-24T06:47:18.965Z,13.20
2022-10-24T06:49:46.562Z,13.30
2022-10-24T06:52:14.154Z,13.30
2022-10-24T06:54:43.593Z,13.30
2022-10-24T06:57:11.219Z,13.40
2022-10-24T06:59:38.788Z,13.50
2022-10-24T07:02:06.752Z,13.50
2022-10-24T07:04:34.357Z,13.50
2022-10-24T07:07:01.996Z,13.50
2022-10-24T07:09:29.778Z,13.60
2022-10-24T07:12:00.919Z,13.60
2022-10-24T07:14:28.549Z,13.60
2022-10-24T07:16:56.178Z,13.70
2022-10-24T07:19:23.787Z,13.70
2022-10-24T07:21:51.385Z,13.80
2022-10-24T07:24:21.274Z,13.80
2022-10-24T07:26:48.837Z,13.80
2022-10-24T07:29:16.390Z,13.90
2022-10-24T07:31:47.743Z,13.90
2022-10-24T07:34:15.834Z,13.90
2022-10-24T07:36:44.092Z,13.90
2022-10-24T07:39:13.344Z,13.90
2022-10-24T07:41:41.937Z,13.90
2022-10-24T07:44:10.808Z,14.00
2022-10-24T07:46:40.611Z,14.00
2022-10-24T07:49:09.118Z,14.00
2022-10-24T07:51:37.155Z,14.10
2022-10-24T07:54:04.908Z,14.20
2022-10-24T07:56:35.811Z,14.20
2022-10-24T07:59:09.052Z,14.20
2022-10-24T08:01:37.333Z,14.20
2022-10-24T08:04:07.623Z,14.20
2022-10-24T08:06:35.177Z,14.20
2022-10-24T08:09:14.302Z,14.20
2022-10-24T08:11:41.970Z,14.10
2022-10-24T08:14:18.274Z,14.10
2022-10-24T08:16:45.880Z,14.20
2022-10-24T08:19:15.037Z,14.20
2022-10-24T08:21:42.704Z,14.30
2022-10-24T08:24:10.359Z,14.40
2022-10-24T08:26:40.440Z,14.40
2022-10-24T08:29:11.944Z,14.70
2022-10-24T08:31:39.509Z,14.70
2022-10-24T08:34:07.305Z,14.70
2022-10-24T08:36:35.883Z,14.80
2022-10-24T08:39:04.613Z,14.80
2022-10-24T08:41:32.264Z,14.90
2022-10-24T08:44:02.652Z,15.00
2022-10-24T08:46:50.239Z,15.10
2022-10-24T08:49:45.239Z,15.30
2022-10-24T08:52:37.630Z,15.40
2022-10-24T08:55:25.173Z,15.50
2022-10-24T08:58:00.881Z,16.00
2022-10-24T09:00:36.421Z,16.40
2022-10-24T09:03:54.523Z,16.80
2022-10-24T09:06:24.248Z,17.20
2022-10-24T09:09:05.800Z,17.40
2022-10-24T09:11:55.884Z,17.40
2022-10-24T09:14:31.590Z,17.60
2022-10-24T09:17:11.257Z,17.80
2022-10-24T09:19:39.347Z,17.80
2022-10-24T09:22:11.064Z,17.70
2022-10-24T09:24:47.338Z,17.40
2022-10-24T09:27:24.961Z,17.10
2022-10-24T09:29:52.750Z,16.90
2022-10-24T09:32:26.982Z,16.80
2022-10-24T09:34:57.907Z,16.60
2022-10-24T09:37:43.907Z,16.60
2022-10-24T09:40:27.473Z,16.60
2022-10-24T09:43:16.736Z,16.70
2022-10-24T09:45:51.565Z,16.80
2022-10-24T09:48:30.405Z,16.70
2022-10-24T09:50:59.921Z,16.90
2022-10-24T09:53:34.144Z,17.20
2022-10-24T09:56:15.105Z,17.40
2022-10-24T09:58:43.104Z,17.60
2022-10-24T10:01:16.580Z,17.70
2022-10-24T10:03:59.556Z,18.00
2022-10-24T10:06:27.697Z,18.20
2022-10-24T10:08:57.247Z,18.30
2022-10-24T10:11:31.611Z,18.40
2022-10-24T10:14:02.405Z,18.20
2022-10-24T10:16:39.516Z,18.10
2022-10-24T10:19:16.426Z,18.00
2022-10-24T10:22:00.467Z,18.20
2022-10-24T10:24:39.938Z,18.40
2022-10-24T10:27:35.326Z,18.40
2022-10-24T10:30:12.162Z,18.70
2022-10-24T10:33:06.648Z,19.10
2022-10-24T10:35:40.386Z,20.30
2022-10-24T10:38:45.279Z,23.30
2022-10-24T10:41:15.996Z,25.80
2022-10-24T10:43:58.147Z,27.70
2022-10-24T10:46:37.764Z,28.80
2022-10-24T10:49:20.578Z,29.40
2022-10-24T10:51:52.131Z,27.60
2022-10-24T10:54:44.573Z,26.30
2022-10-24T10:57:17.434Z,25.20
2022-10-24T11:00:09.258Z,24.10
2022-10-24T11:03:01.358Z,24.20
2022-10-24T11:06:06.074Z,24.40
2022-10-24T11:09:11.352Z,24.70
2022-10-24T11:11:46.987Z,24.60
2022-10-24T11:14:26.355Z,25.80
2022-10-24T11:16:58.614Z,26.00
2022-10-24T11:19:53.166Z,24.70
2022-10-24T11:22:27.969Z,24.00
2022-10-24T11:25:24.451Z,24.10
2022-10-24T11:28:12.925Z,25.30
2022-10-24T11:31:01.019Z,24.40
2022-10-24T11:33:34.196Z,24.50
2022-10-24T11:36:27.661Z,24.90
2022-10-24T11:41:47.671Z,27.50
2022-10-24T11:44:29.382Z,27.10
2022-10-24T11:47:12.734Z,27.30
2022-10-24T11:49:45.472Z,27.40
2022-10-24T11:52:26.773Z,27.40
2022-10-24T11:55:04.099Z,26.10
2022-10-24T11:57:36.380Z,25.60
2022-10-24T12:00:04.658Z,24.60
2022-10-24T12:02:49.733Z,24.80
2022-10-24T12:05:49.956Z,25.60
2022-10-24T12:08:39.688Z,25.40
2022-10-24T12:11:33.133Z,24.30
2022-10-24T12:14:19.009Z,25.50
2022-10-24T12:16:49.651Z,27.80
2022-10-24T12:19:21.175Z,26.00
2022-10-24T12:21:53.564Z,25.90
2022-10-24T12:24:36.307Z,25.80
2022-10-24T12:27:07.010Z,26.00
2022-10-24T12:29:36.667Z,27.40
2022-10-24T12:32:41.566Z,29.40
2022-10-24T12:35:31.268Z,31.50
2022-10-24T12:38:00.728Z,33.30
2022-10-24T12:40:51.518Z,33.60
2022-10-24T12:43:37.967Z,34.10
2022-10-24T12:46:22.973Z,33.80
2022-10-24T12:48:56.956Z,33.00
2022-10-24T12:51:32.917Z,32.60
2022-10-24T12:54:11.914Z,30.80
2022-10-24T12:57:02.446Z,29.40
2022-10-24T12:59:32.129Z,27.20
2022-10-24T13:02:25.602Z,27.60
2022-10-24T13:04:58.865Z,28.00
2022-10-24T13:07:29.454Z,27.70
2022-10-24T13:10:24.696Z,26.30
2022-10-24T13:12:57.834Z,25.50
2022-10-24T13:15:39.685Z,24.40
2022-10-24T13:18:45.223Z,23.70
2022-10-24T13:21:18.752Z,22.10
2022-10-24T13:23:48.063Z,22.00
2022-10-24T13:26:39.208Z,22.10
2022-10-24T13:29:15.419Z,22.10
2022-10-24T13:31:45.662Z,23.20
2022-10-24T13:34:25.673Z,25.10
2022-10-24T13:37:24.124Z,27.60
2022-10-24T13:40:02.602Z,28.80
2022-10-24T13:42:41.000Z,27.40
2022-10-24T13:45:40.042Z,28.20
2022-10-24T13:48:19.918Z,27.20
2022-10-24T13:51:13.816Z,26.60
2022-10-24T13:53:52.488Z,26.70
2022-10-24T13:56:20.290Z,25.40
2022-10-24T13:58:47.944Z,24.90
2022-10-24T14:01:25.915Z,24.60
2022-10-24T14:03:55.177Z,24.30
2022-10-24T14:06:29.009Z,23.70
2022-10-24T14:09:10.262Z,23.40
2022-10-24T14:11:44.003Z,23.20
2022-10-24T14:14:36.112Z,23.10
2022-10-24T14:17:10.821Z,23.30
2022-10-24T14:19:49.681Z,23.50
2022-10-24T14:22:22.054Z,23.80
2022-10-24T14:24:51.884Z,24.50
2022-10-24T14:27:20.449Z,25.20
2022-10-24T14:29:54.519Z,25.00
2022-10-24T14:32:22.466Z,24.60
2022-10-24T14:34:50.664Z,24.00
2022-10-24T14:37:28.598Z,23.50
2022-10-24T14:39:59.691Z,22.60
2022-10-24T14:42:28.373Z,22.10
2022-10-24T14:44:58.413Z,21.80
2022-10-24T14:47:31.812Z,21.70
2022-10-24T14:49:59.734Z,21.60
2022-10-24T14:52:41.021Z,21.60
2022-10-24T14:55:21.701Z,21.60
2022-10-24T14:57:51.634Z,21.60
2022-10-24T15:00:22.678Z,21.40
2022-10-24T15:02:52.591Z,21.30
2022-10-24T15:05:20.316Z,21.20
2022-10-24T15:08:16.683Z,21.00
2022-10-24T15:10:42.821Z,20.80
2022-10-24T15:13:16.775Z,20.60
2022-10-24T15:15:44.406Z,20.40
2022-10-24T15:18:24.536Z,20.50
2022-10-24T15:21:07.260Z,20.50
2022-10-24T15:23:51.859Z,20.60
2022-10-24T15:26:39.193Z,20.40
2022-10-24T15:29:12.500Z,20.30
2022-10-24T15:31:43.137Z,20.10
2022-10-24T15:34:22.946Z,20.00
2022-10-24T15:36:52.758Z,19.90
2022-10-24T15:39:24.697Z,19.90
2022-10-24T15:41:53.158Z,19.90
2022-10-24T15:44:22.441Z,19.90
2022-10-24T15:46:50.176Z,19.80
2022-10-24T15:49:20.246Z,19.70
2022-10-24T15:51:50.455Z,19.60
2022-10-24T15:54:22.302Z,19.60
2022-10-24T15:56:50.354Z,19.60
2022-10-24T15:59:19.830Z,19.50
2022-10-24T16:02:00.197Z,19.50
2022-10-24T16:04:28.551Z,19.50
2022-10-24T16:06:57.427Z,19.40
2022-10-24T16:09:31.056Z,19.30
2022-10-24T16:12:01.602Z,19.10
2022-10-24T16:14:30.352Z,19.00
2022-10-24T16:16:58.899Z,18.90
2022-10-24T16:19:27.114Z,18.70
2022-10-24T16:21:58.351Z,18.50
2022-10-24T16:24:27.361Z,18.40
2022-10-24T16:26:55.083Z,18.30
2022-10-24T16:29:22.635Z,18.20
2022-10-24T16:31:50.803Z,18.10
2022-10-24T16:34:18.421Z,17.90
2022-10-24T16:36:46.033Z,17.90
2022-10-24T16:39:14.566Z,17.70
2022-10-24T16:41:46.154Z,17.60
2022-10-24T16:44:14.844Z,17.50
2022-10-24T16:46:42.495Z,17.40
2022-10-24T16:49:10.067Z,17.30
2022-10-24T16:51:41.706Z,17.10
2022-10-24T16:54:11.654Z,17.00
2022-10-24T16:56:39.208Z,17.00
2022-10-24T16:59:09.249Z,16.80
2022-10-24T17:01:39.468Z,16.70
2022-10-24T17:04:07.258Z,16.70
2022-10-24T17:06:35.119Z,16.70
2022-10-24T17:09:03.046Z,16.70
2022-10-24T17:11:44.781Z,16.60
2022-10-24T17:14:14.271Z,16.60
2022-10-24T17:16:42.935Z,16.60
2022-10-24T17:19:18.305Z,16.60
2022-10-24T17:21:50.685Z,16.60
2022-10-24T17:24:28.360Z,16.60
2022-10-24T17:26:56.112Z,16.60
2022-10-24T17:29:28.511Z,16.70
2022-10-24T17:31:57.201Z,16.70
2022-10-24T17:34:25.470Z,16.80
2022-10-24T17:37:18.280Z,16.80
2022-10-24T17:39:45.960Z,16.70
2022-10-24T17:42:13.736Z,16.70
2022-10-24T17:44:41.731Z,16.70
2022-10-24T17:47:13.147Z,16.70
2022-10-24T17:49:43.358Z,16.60
2022-10-24T17:52:22.332Z,16.60
2022-10-24T17:54:56.186Z,16.60
2022-10-24T17:57:26.091Z,16.60
2022-10-24T17:59:57.051Z,16.50
2022-10-24T18:02:27.159Z,16.50
2022-10-24T18:04:58.172Z,16.40
2022-10-24T18:07:28.699Z,16.40
2022-10-24T18:10:00.732Z,16.40
2022-10-24T18:12:30.198Z,16.40
2022-10-24T18:15:03.787Z,16.30
2022-10-24T18:17:31.978Z,16.30
2022-10-24T18:20:09.683Z,16.20
2022-10-24T18:22:43.270Z,16.20
2022-10-24T18:25:20.193Z,16.20
2022-10-24T18:27:59.064Z,16.10
2022-10-24T18:30:33.125Z,16.10
2022-10-24T18:33:07.698Z,16.20
2022-10-24T18:36:36.471Z,16.20
2022-10-24T18:39:13.889Z,16.20
2022-10-24T18:41:48.597Z,16.20
2022-10-24T18:44:23.115Z,16.20
2022-10-24T18:46:52.469Z,16.20
2022-10-24T18:49:22.822Z,16.10
2022-10-24T18:52:09.516Z,16.00
2022-10-24T18:54:45.006Z,15.90
2022-10-24T18:57:22.636Z,15.80
2022-10-24T18:59:51.065Z,15.80
2022-10-24T19:02:34.805Z,15.80
2022-10-24T19:05:23.423Z,15.80
2022-10-24T19:07:52.189Z,15.80
2022-10-24T19:10:25.871Z,15.80
2022-10-24T19:12:54.489Z,15.70
2022-10-24T19:15:23.281Z,15.70
2022-10-24T19:17:51.570Z,15.70
2022-10-24T19:20:21.924Z,15.60
2022-10-24T19:22:50.365Z,15.60
2022-10-24T19:25:18.225Z,15.50
2022-10-24T19:27:45.959Z,15.40
2022-10-24T19:30:13.858Z,15.40
2022-10-24T19:32:41.547Z,15.40
2022-10-24T19:35:09.367Z,15.50
2022-10-24T19:37:37.414Z,15.40
2022-10-24T19:40:05.789Z,15.30
2022-10-24T19:42:34.516Z,15.30
2022-10-24T19:45:02.521Z,15.40
2022-10-24T19:47:30.093Z,15.30
2022-10-24T19:49:57.779Z,15.30
2022-10-24T19:52:25.591Z,15.30
2022-10-24T19:54:53.249Z,15.30
2022-10-24T19:57:23.910Z,15.30
2022-10-24T19:59:51.468Z,15.30
2022-10-24T20:02:19.072Z,15.20
2022-10-24T20:04:49.228Z,15.30
2022-10-24T20:07:17.838Z,15.20
2022-10-24T20:09:45.572Z,15.30
2022-10-24T20:12:13.290Z,15.20
2022-10-24T20:14:40.871Z,15.20
2022-10-24T20:17:08.581Z,15.10
2022-10-24T20:19:38.491Z,15.10
2022-10-24T20:22:06.229Z,15.00
2022-10-24T20:24:34.351Z,15.00
2022-10-24T20:27:02.304Z,15.00
2022-10-24T20:29:32.781Z,14.90
2022-10-24T20:32:00.588Z,14.80
2022-10-24T20:34:28.151Z,14.80
2022-10-24T20:36:55.858Z,14.70
2022-10-24T20:39:23.459Z,14.60
2022-10-24T20:41:54.289Z,14.60
2022-10-24T20:44:22.156Z,14.50
2022-10-24T20:46:50.160Z,14.50
2022-10-24T20:49:20.029Z,14.50
2022-10-24T20:51:49.836Z,14.40
2022-10-24T20:54:18.363Z,14.40
2022-10-24T20:56:45.929Z,14.30
2022-10-24T20:59:13.818Z,14.30
2022-10-24T21:05:43.046Z,14.40
2022-10-24T21:08:16.094Z,14.50
2022-10-24T21:10:49.711Z,14.40
2022-10-24T21:25:34.405Z,14.60
2022-10-24T21:31:53.693Z,14.60
2022-10-24T21:35:38.803Z,14.60
2022-10-24T21:38:09.594Z,14.50
2022-10-24T21:40:37.429Z,14.50
2022-10-24T21:43:05.334Z,14.60
2022-10-24T21:45:33.119Z,14.40
2022-10-24T21:48:00.828Z,14.40
2022-10-24T21:50:28.592Z,14.40
2022-10-24T21:52:58.790Z,14.40
2022-10-24T21:55:26.556Z,14.30
2022-10-24T21:57:54.315Z,14.30
2022-10-24T22:00:22.004Z,14.20
2022-10-24T22:02:52.479Z,14.10
2022-10-24T22:05:23.249Z,14.00
2022-10-24T22:07:51.422Z,13.90
2022-10-24T22:10:22.452Z,14.00
2022-10-24T22:12:50.131Z,13.80
2022-10-24T22:15:18.001Z,13.80
2022-10-24T22:17:46.206Z,13.70
2022-10-24T22:20:14.145Z,13.90
2022-10-24T22:22:41.796Z,13.80
2022-10-24T22:25:09.679Z,13.70
2022-10-24T22:27:37.295Z,13.80
2022-10-24T22:30:05.594Z,13.70
2022-10-24T22:32:33.563Z,13.60
2022-10-24T22:35:01.469Z,13.60
2022-10-24T22:37:31.637Z,13.50
2022-10-24T22:39:59.698Z,13.40
2022-10-24T22:42:27.649Z,13.40
2022-10-24T22:44:56.406Z,13.40
2022-10-24T22:48:16.637Z,13.50
2022-10-24T22:50:55.216Z,13.60
2022-10-24T22:53:28.559Z,13.60
2022-10-24T22:56:10.779Z,13.60
2022-10-24T22:58:45.599Z,13.60
2022-10-24T23:01:24.192Z,13.50
2022-10-24T23:04:12.536Z,13.50
2022-10-24T23:06:51.645Z,13.40
2022-10-24T23:09:19.416Z,13.40
2022-10-24T23:11:47.403Z,13.50
2022-10-24T23:16:52.866Z,13.60
2022-10-24T23:19:23.794Z,13.60
2022-10-24T23:22:06.936Z,13.70
2022-10-24T23:24:35.395Z,13.70
2022-10-24T23:27:23.509Z,13.80
2022-10-24T23:29:51.539Z,13.80
2022-10-24T23:32:22.516Z,13.80
2022-10-24T23:34:51.785Z,13.80
2022-10-24T23:37:38.075Z,13.70
2022-10-24T23:40:17.594Z,13.70
2022-10-24T23:42:46.582Z,13.60
2022-10-24T23:45:31.854Z,13.60
2022-10-24T23:48:18.057Z,13.60
2022-10-24T23:50:49.059Z,13.60
2022-10-24T23:53:25.570Z,13.60
2022-10-24T23:55:54.774Z,13.60
2022-10-24T23:58:22.540Z,13.60
